Decoded Metar for KS39 ( in ) (IATA:) | Meteo·Mobile Aviation Weather
aviador You're here:

KS39 Decoded Metar

in
Report Time2018-12-14 12:15:00
UTC Time2018-12-14 12:34:13
Flight Rules vfr VFR
Wind160° at 15 kt
W.Rank160° ranks 9
Current wind is above 160° avg. (6.5)
Visibility9999 m
Phenomena:N/A
Clouds:N/A
Expected CloudBase > 4,000 ft AGL from Temp-Dew spread
CeilingNone
Temp05°C
Dew Point-5°C (49% RH)
AAT-3.0°C
QNH1014 hPa
Raw Report
KS39 141215Z AUTO 16015KT 10SM CLR 05/M05 A2994 RMK AO2=

Extra information for KS39:More info

Social comments